createdAt,value
2023-02-19T00:00:14.775Z,11.70
2023-02-19T00:00:47.524Z,11.70
2023-02-19T00:01:21.826Z,11.80
2023-02-19T00:01:54.660Z,11.80
2023-02-19T00:02:26.498Z,11.70
2023-02-19T00:02:58.312Z,11.70
2023-02-19T00:03:31.250Z,11.70
2023-02-19T00:04:05.436Z,11.70
2023-02-19T00:04:38.222Z,11.70
2023-02-19T00:05:10.137Z,11.70
2023-02-19T00:05:41.926Z,11.70
2023-02-19T00:06:14.766Z,11.70
2023-02-19T00:06:47.517Z,11.70
2023-02-19T00:07:20.304Z,11.70
2023-02-19T00:07:52.115Z,11.70
2023-02-19T00:08:23.891Z,11.70
2023-02-19T00:08:56.108Z,11.60
2023-02-19T00:09:29.075Z,11.60
2023-02-19T00:10:00.883Z,11.60
2023-02-19T00:10:32.672Z,11.60
2023-02-19T00:11:07.733Z,11.60
2023-02-19T00:11:40.487Z,11.60
2023-02-19T00:12:12.256Z,11.60
2023-02-19T00:12:46.423Z,11.60
2023-02-19T00:13:18.897Z,11.60
2023-02-19T00:13:52.779Z,11.60
2023-02-19T00:14:25.550Z,11.60
2023-02-19T00:14:58.336Z,11.60
2023-02-19T00:15:32.217Z,11.60
2023-02-19T00:16:06.611Z,11.60
2023-02-19T00:16:40.842Z,11.60
2023-02-19T00:17:12.626Z,11.60
2023-02-19T00:17:45.389Z,11.60
2023-02-19T00:18:17.223Z,11.60
2023-02-19T00:18:49.696Z,11.60
2023-02-19T00:19:23.614Z,11.60
2023-02-19T00:19:55.396Z,11.60
2023-02-19T00:20:27.234Z,11.60
2023-02-19T00:21:00.086Z,11.60
2023-02-19T00:21:32.230Z,11.60
2023-02-19T00:22:05.030Z,11.60
2023-02-19T00:22:36.892Z,11.60
2023-02-19T00:23:08.766Z,11.60
2023-02-19T00:23:40.609Z,11.60
2023-02-19T00:24:15.162Z,11.60
2023-02-19T00:24:49.297Z,11.60
2023-02-19T00:25:21.157Z,11.60
2023-02-19T00:25:53.943Z,11.60
2023-02-19T00:26:26.112Z,11.60
2023-02-19T00:26:58.909Z,11.60
2023-02-19T00:27:30.695Z,11.70
2023-02-19T00:28:04.420Z,11.70
2023-02-19T00:28:37.520Z,11.70
2023-02-19T00:29:12.106Z,11.70
2023-02-19T00:29:44.907Z,11.70
2023-02-19T00:30:16.762Z,11.70
2023-02-19T00:30:48.952Z,11.70
2023-02-19T00:31:24.605Z,11.60
2023-02-19T00:31:56.550Z,11.60
2023-02-19T00:32:28.390Z,11.60
2023-02-19T00:33:01.154Z,11.60
2023-02-19T00:33:33.048Z,11.60
2023-02-19T00:34:07.214Z,11.70
2023-02-19T00:34:39.010Z,11.70
2023-02-19T00:35:10.803Z,11.70
2023-02-19T00:35:43.582Z,11.60
2023-02-19T00:36:16.064Z,11.60
2023-02-19T00:36:47.842Z,11.60
2023-02-19T00:37:20.593Z,11.60
2023-02-19T00:37:52.374Z,11.60
2023-02-19T00:38:24.157Z,11.60
2023-02-19T00:38:56.282Z,11.60
2023-02-19T00:39:29.048Z,11.60
2023-02-19T00:40:00.823Z,11.60
2023-02-19T00:40:32.676Z,11.70
2023-02-19T00:41:18.983Z,11.70
2023-02-19T00:41:50.799Z,11.70
2023-02-19T00:42:23.567Z,11.70
2023-02-19T00:42:55.335Z,11.70
2023-02-19T00:43:28.464Z,11.60
2023-02-19T00:44:03.298Z,11.60
2023-02-19T00:44:35.129Z,11.60
2023-02-19T00:45:07.672Z,11.60
2023-02-19T00:45:40.440Z,11.60
2023-02-19T00:46:12.446Z,11.50
2023-02-19T00:46:46.256Z,11.50
2023-02-19T00:47:19.054Z,11.50
2023-02-19T00:47:50.895Z,11.60
2023-02-19T00:48:22.699Z,11.60
2023-02-19T00:48:56.270Z,11.60
2023-02-19T00:49:28.089Z,11.60
2023-02-19T00:49:59.888Z,11.60
2023-02-19T00:50:32.658Z,11.60
2023-02-19T00:51:04.710Z,11.60
2023-02-19T00:51:38.199Z,11.60
2023-02-19T00:52:10.959Z,11.60
2023-02-19T00:52:42.748Z,11.70
2023-02-19T00:53:14.558Z,11.60
2023-02-19T00:53:47.330Z,11.60
2023-02-19T00:54:19.581Z,11.60
2023-02-19T00:54:51.416Z,11.60
2023-02-19T00:55:24.192Z,11.60
2023-02-19T00:55:56.083Z,11.60
2023-02-19T00:56:28.152Z,11.60
2023-02-19T00:57:00.928Z,11.60
2023-02-19T00:57:32.783Z,11.60
2023-02-19T00:58:04.552Z,11.60
2023-02-19T00:58:39.127Z,11.70
2023-02-19T00:59:11.157Z,11.70
2023-02-19T00:59:42.994Z,11.70
2023-02-19T01:00:16.118Z,11.70
2023-02-19T01:00:47.885Z,11.70
2023-02-19T01:01:20.445Z,11.70
2023-02-19T01:01:53.332Z,11.70
2023-02-19T01:02:26.776Z,11.70
2023-02-19T01:02:58.563Z,11.60
2023-02-19T01:03:31.323Z,11.60
2023-02-19T01:04:06.173Z,11.60
2023-02-19T01:04:38.588Z,11.60
2023-02-19T01:05:11.432Z,11.60
2023-02-19T01:05:43.266Z,11.60
2023-02-19T01:06:17.323Z,11.60
2023-02-19T01:06:50.092Z,11.60
2023-02-19T01:07:21.922Z,11.60
2023-02-19T01:07:53.747Z,11.60
2023-02-19T01:08:27.351Z,11.70
2023-02-19T01:08:59.364Z,11.70
2023-02-19T01:09:31.526Z,11.70
2023-02-19T01:10:04.567Z,11.70
2023-02-19T01:10:36.347Z,11.70
2023-02-19T01:11:09.432Z,11.70
2023-02-19T01:11:42.422Z,11.60
2023-02-19T01:12:14.248Z,11.60
2023-02-19T01:12:46.037Z,11.60
2023-02-19T01:13:18.554Z,11.60
2023-02-19T01:13:52.728Z,11.60
2023-02-19T01:14:24.583Z,11.60
2023-02-19T01:14:56.576Z,11.60
2023-02-19T01:15:29.338Z,11.60
2023-02-19T01:16:04.964Z,11.60
2023-02-19T01:16:37.161Z,11.60
2023-02-19T01:17:09.995Z,11.60
2023-02-19T01:17:41.776Z,11.60
2023-02-19T01:18:13.632Z,11.60
2023-02-19T01:18:47.624Z,11.60
2023-02-19T01:19:19.571Z,11.60
2023-02-19T01:19:51.534Z,11.60
2023-02-19T01:20:24.619Z,11.60
2023-02-19T01:20:56.456Z,11.60
2023-02-19T01:21:31.437Z,11.60
2023-02-19T01:22:03.228Z,11.60
2023-02-19T01:22:35.097Z,11.50
2023-02-19T01:23:08.112Z,11.60
2023-02-19T01:23:40.626Z,11.60
2023-02-19T01:24:12.496Z,11.60
2023-02-19T01:24:44.996Z,11.60
2023-02-19T01:25:17.902Z,11.50
2023-02-19T01:25:49.694Z,11.50
2023-02-19T01:26:23.443Z,11.50
2023-02-19T01:26:56.221Z,11.50
2023-02-19T01:27:28.554Z,11.50
2023-02-19T01:28:00.468Z,11.50
2023-02-19T01:28:33.312Z,11.50
2023-02-19T01:29:06.522Z,11.50
2023-02-19T01:29:38.544Z,11.50
2023-02-19T01:30:11.878Z,11.50
2023-02-19T01:30:43.728Z,11.50
2023-02-19T01:31:17.982Z,11.50
2023-02-19T01:31:50.889Z,11.50
2023-02-19T01:32:22.788Z,11.50
2023-02-19T01:32:54.609Z,11.50
2023-02-19T01:33:26.463Z,11.50
2023-02-19T01:34:01.785Z,11.50
2023-02-19T01:34:34.030Z,11.50
2023-02-19T01:35:06.517Z,11.50
2023-02-19T01:35:40.576Z,11.50
2023-02-19T01:36:12.565Z,11.50
2023-02-19T01:36:45.316Z,11.50
2023-02-19T01:37:17.099Z,11.50
2023-02-19T01:37:49.082Z,11.60
2023-02-19T01:38:21.842Z,11.60
2023-02-19T01:38:54.339Z,11.60
2023-02-19T01:39:26.184Z,11.60
2023-02-19T01:39:59.026Z,11.60
2023-02-19T01:40:30.990Z,11.50
2023-02-19T01:41:05.309Z,11.60
2023-02-19T01:41:40.108Z,11.50
2023-02-19T01:42:15.082Z,11.50
2023-02-19T01:42:47.052Z,11.50
2023-02-19T01:43:18.872Z,11.50
2023-02-19T01:44:01.006Z,11.50
2023-02-19T01:45:25.248Z,11.50
2023-02-19T01:45:59.541Z,11.50
2023-02-19T01:46:32.695Z,11.50
2023-02-19T01:47:04.761Z,11.50
2023-02-19T01:47:37.652Z,11.50
2023-02-19T01:48:12.393Z,11.50
2023-02-19T01:48:45.190Z,11.60
2023-02-19T01:49:21.224Z,11.50
2023-02-19T01:49:56.805Z,11.50
2023-02-19T01:50:32.987Z,11.50
2023-02-19T01:51:09.518Z,11.50
2023-02-19T01:51:44.820Z,11.50
2023-02-19T01:52:21.883Z,11.50
2023-02-19T01:52:53.949Z,11.50
2023-02-19T01:53:28.654Z,11.50
2023-02-19T01:54:05.521Z,11.50
2023-02-19T01:54:40.638Z,11.60
2023-02-19T01:55:13.922Z,11.60
2023-02-19T01:55:48.186Z,11.60
2023-02-19T01:56:22.134Z,11.60
2023-02-19T01:56:55.782Z,11.60
2023-02-19T01:57:33.111Z,11.60
2023-02-19T01:58:06.723Z,11.60
2023-02-19T01:58:39.016Z,11.60
2023-02-19T01:59:10.977Z,11.60
2023-02-19T01:59:43.708Z,11.50
2023-02-19T02:00:18.392Z,11.50
2023-02-19T02:00:51.746Z,11.60
2023-02-19T02:01:25.008Z,11.60
2023-02-19T02:01:57.877Z,11.60
2023-02-19T02:02:30.070Z,11.50
2023-02-19T02:03:02.060Z,11.50
2023-02-19T02:03:36.326Z,11.50
2023-02-19T02:04:10.826Z,11.50
2023-02-19T02:04:43.766Z,11.50
2023-02-19T02:05:24.280Z,11.50
2023-02-19T02:06:01.578Z,11.60
2023-02-19T02:06:40.430Z,11.40
2023-02-19T02:07:27.504Z,11.40
2023-02-19T02:08:20.800Z,11.40
2023-02-19T02:09:15.416Z,11.40
2023-02-19T02:10:05.866Z,11.40
2023-02-19T02:10:37.683Z,11.40
2023-02-19T02:11:10.839Z,11.40
2023-02-19T02:11:46.336Z,11.40
2023-02-19T02:12:18.137Z,11.40
2023-02-19T02:12:52.800Z,11.40
2023-02-19T02:13:24.699Z,11.40
2023-02-19T02:13:58.210Z,11.30
2023-02-19T02:14:34.054Z,11.30
2023-02-19T02:15:07.095Z,11.40
2023-02-19T02:15:51.463Z,11.30
2023-02-19T02:16:34.079Z,11.30
2023-02-19T02:17:19.040Z,11.30
2023-02-19T02:17:56.670Z,11.30
2023-02-19T02:18:42.102Z,11.30
2023-02-19T02:19:36.992Z,11.30
2023-02-19T02:20:33.069Z,11.30
2023-02-19T02:21:29.628Z,11.30
2023-02-19T02:22:08.070Z,11.20
2023-02-19T02:22:47.199Z,11.20
2023-02-19T02:23:28.658Z,11.20
2023-02-19T02:24:13.139Z,11.20
2023-02-19T02:25:21.179Z,11.10
2023-02-19T02:26:07.340Z,11.10
2023-02-19T02:26:51.500Z,11.00
2023-02-19T02:27:38.158Z,10.90
2023-02-19T02:28:26.978Z,10.90
2023-02-19T02:29:32.652Z,10.80
2023-02-19T02:30:17.313Z,10.70
2023-02-19T02:30:51.872Z,10.70
2023-02-19T02:31:28.614Z,10.70
2023-02-19T02:32:04.642Z,10.60
2023-02-19T02:32:43.133Z,10.60
2023-02-19T02:33:27.534Z,10.60
2023-02-19T02:34:04.323Z,10.50
2023-02-19T02:34:46.007Z,10.50
2023-02-19T02:35:20.206Z,10.50
2023-02-19T02:35:56.813Z,10.50
2023-02-19T02:36:32.851Z,10.40
2023-02-19T02:37:08.401Z,10.40
2023-02-19T02:37:43.361Z,10.40
2023-02-19T02:38:16.726Z,10.40
2023-02-19T02:38:52.741Z,10.30
2023-02-19T02:39:27.794Z,10.30
2023-02-19T02:40:01.702Z,10.30
2023-02-19T02:40:34.736Z,10.30
2023-02-19T02:41:07.294Z,10.20
2023-02-19T02:41:43.566Z,10.20
2023-02-19T02:42:27.238Z,10.20
2023-02-19T02:43:01.608Z,10.20
2023-02-19T02:43:33.636Z,10.20
2023-02-19T02:44:05.577Z,10.20
2023-02-19T02:44:39.092Z,10.20
2023-02-19T02:45:35.127Z,10.20
2023-02-19T02:46:11.478Z,10.10
2023-02-19T02:46:45.788Z,10.10
2023-02-19T02:47:32.877Z,10.10
2023-02-19T02:48:25.233Z,10.10
2023-02-19T02:48:58.517Z,10.10
2023-02-19T02:49:30.828Z,10.10
2023-02-19T02:50:05.558Z,10.10
2023-02-19T02:50:41.706Z,10.10
2023-02-19T02:51:19.896Z,10.10
2023-02-19T02:51:54.762Z,10.10
2023-02-19T02:52:41.515Z,10.10
2023-02-19T02:53:36.723Z,10.10
2023-02-19T02:54:30.603Z,10.00
2023-02-19T02:55:05.801Z,10.00
2023-02-19T02:55:41.820Z,10.00
2023-02-19T02:56:17.062Z,10.00
2023-02-19T02:56:51.214Z,9.90
2023-02-19T02:57:23.149Z,9.90
2023-02-19T02:57:55.157Z,9.90
2023-02-19T02:58:29.179Z,9.90
2023-02-19T02:59:03.592Z,9.90
2023-02-19T02:59:38.841Z,9.90
2023-02-19T03:00:13.015Z,9.90
2023-02-19T03:01:11.291Z,9.90
2023-02-19T03:02:20.034Z,9.90
2023-02-19T03:02:52.867Z,9.90
2023-02-19T03:03:27.285Z,9.80
2023-02-19T03:04:04.177Z,9.80
2023-02-19T03:05:03.136Z,9.80
2023-02-19T03:05:53.267Z,9.70
2023-02-19T03:06:29.530Z,9.70
2023-02-19T03:07:07.757Z,9.60
2023-02-19T03:07:43.856Z,9.60
2023-02-19T03:08:19.774Z,9.60
2023-02-19T03:08:56.137Z,9.60
2023-02-19T03:09:32.373Z,9.60
2023-02-19T03:10:09.026Z,9.60
2023-02-19T03:10:44.316Z,9.60
2023-02-19T03:11:35.162Z,9.60
2023-02-19T03:12:30.471Z,9.60
2023-02-19T03:13:23.558Z,9.60
2023-02-19T03:14:17.131Z,9.60
2023-02-19T03:15:11.412Z,9.60
2023-02-19T03:16:15.728Z,9.60
2023-02-19T03:17:10.068Z,9.50
2023-02-19T03:18:05.630Z,9.50
2023-02-19T03:18:59.138Z,9.50
2023-02-19T03:19:36.406Z,9.50
2023-02-19T03:20:13.580Z,9.50
2023-02-19T03:20:50.260Z,9.50
2023-02-19T03:21:24.077Z,9.50
2023-02-19T03:22:00.150Z,9.50
2023-02-19T03:22:36.361Z,9.60
2023-02-19T03:23:11.958Z,9.50
2023-02-19T03:24:04.401Z,9.50
2023-02-19T03:24:59.440Z,9.40
2023-02-19T03:25:51.892Z,9.50
2023-02-19T03:26:26.173Z,9.40
2023-02-19T03:27:00.902Z,9.40
2023-02-19T03:27:35.654Z,9.40
2023-02-19T03:28:11.125Z,9.40
2023-02-19T03:29:04.150Z,9.40
2023-02-19T03:29:38.379Z,9.40
2023-02-19T03:30:15.406Z,9.40
2023-02-19T03:30:52.403Z,9.40
2023-02-19T03:31:27.035Z,9.40
2023-02-19T03:32:02.915Z,9.40
2023-02-19T03:32:39.475Z,9.40
2023-02-19T03:33:14.893Z,9.40
2023-02-19T03:33:51.655Z,9.20
2023-02-19T03:34:29.414Z,9.40
2023-02-19T03:35:06.414Z,9.40
2023-02-19T03:35:41.909Z,9.40
2023-02-19T03:36:15.598Z,9.40
2023-02-19T03:36:54.838Z,9.40
2023-02-19T03:37:30.144Z,9.40
2023-02-19T03:38:07.287Z,9.40
2023-02-19T03:38:43.595Z,9.40
2023-02-19T03:39:20.267Z,9.40
2023-02-19T03:39:53.800Z,9.40
2023-02-19T03:40:31.658Z,9.40
2023-02-19T03:41:10.273Z,9.40
2023-02-19T03:41:49.227Z,9.40
2023-02-19T03:42:36.831Z,9.40
2023-02-19T03:43:16.891Z,9.40
2023-02-19T03:43:52.432Z,9.40
2023-02-19T03:44:32.600Z,9.40
2023-02-19T03:45:22.067Z,9.40
2023-02-19T03:46:05.241Z,9.30
2023-02-19T03:46:44.480Z,9.30
2023-02-19T03:47:22.455Z,9.30
2023-02-19T03:48:03.832Z,9.30
2023-02-19T03:48:38.596Z,9.30
2023-02-19T03:49:16.672Z,9.30
2023-02-19T03:49:52.082Z,9.30
2023-02-19T03:50:28.080Z,9.20
2023-02-19T03:51:09.133Z,9.20
2023-02-19T03:51:46.215Z,9.20
2023-02-19T03:52:23.831Z,9.20
2023-02-19T03:53:05.026Z,9.20
2023-02-19T03:53:49.210Z,9.20
2023-02-19T03:54:27.696Z,9.20
2023-02-19T03:55:09.832Z,9.20
2023-02-19T03:55:49.019Z,9.20
2023-02-19T03:56:27.868Z,9.20
2023-02-19T03:57:07.107Z,9.20
2023-02-19T03:57:48.634Z,9.20
2023-02-19T03:58:28.020Z,9.20
2023-02-19T03:59:05.627Z,9.10
2023-02-19T03:59:44.367Z,9.10
2023-02-19T04:00:19.802Z,9.10
2023-02-19T04:01:00.303Z,9.10
2023-02-19T04:01:40.123Z,9.10
2023-02-19T04:02:16.906Z,9.10
2023-02-19T04:02:53.728Z,9.10
2023-02-19T04:03:30.297Z,9.10
2023-02-19T04:04:09.095Z,9.10
2023-02-19T04:04:47.404Z,9.10
2023-02-19T04:05:21.323Z,9.10
2023-02-19T04:05:58.355Z,9.10
2023-02-19T04:06:33.864Z,9.10
2023-02-19T04:07:06.140Z,9.10
2023-02-19T04:07:41.412Z,9.10
2023-02-19T04:08:18.246Z,9.10
2023-02-19T04:08:54.606Z,9.10
2023-02-19T04:09:30.970Z,9.10
2023-02-19T04:10:05.540Z,9.10
2023-02-19T04:10:39.549Z,9.10
2023-02-19T04:11:14.084Z,9.10
2023-02-19T04:11:47.013Z,9.10
2023-02-19T04:12:21.112Z,9.10
2023-02-19T04:12:59.315Z,9.10
2023-02-19T04:13:36.271Z,9.10
2023-02-19T04:14:11.383Z,9.10
2023-02-19T04:14:47.869Z,9.10
2023-02-19T04:15:24.628Z,9.10
2023-02-19T04:16:02.670Z,9.10
2023-02-19T04:16:39.681Z,9.10
2023-02-19T04:17:19.343Z,9.10
2023-02-19T04:17:55.155Z,9.10
2023-02-19T04:18:32.127Z,8.90
2023-02-19T04:19:08.525Z,9.10
2023-02-19T04:19:42.776Z,9.10
2023-02-19T04:20:17.527Z,9.10
2023-02-19T04:20:50.345Z,9.10
2023-02-19T04:21:23.787Z,9.10
2023-02-19T04:21:59.175Z,9.10
2023-02-19T04:22:31.536Z,9.10
2023-02-19T04:23:03.801Z,9.10
2023-02-19T04:23:41.866Z,9.10
2023-02-19T04:24:18.759Z,9.10
2023-02-19T04:24:53.403Z,9.10
2023-02-19T04:25:28.075Z,9.10
2023-02-19T04:26:01.177Z,9.10
2023-02-19T04:26:33.754Z,9.10
2023-02-19T04:27:07.474Z,9.10
2023-02-19T04:27:39.748Z,9.10
2023-02-19T04:28:14.022Z,9.10
2023-02-19T04:28:47.891Z,9.10
2023-02-19T04:29:19.700Z,9.10
2023-02-19T04:29:52.466Z,9.10
2023-02-19T04:30:24.538Z,9.00
2023-02-19T04:30:57.676Z,9.10
2023-02-19T04:31:35.163Z,9.00
2023-02-19T04:32:07.212Z,9.00
2023-02-19T04:32:39.036Z,9.10
2023-02-19T04:33:11.794Z,9.10
2023-02-19T04:33:43.592Z,9.10
2023-02-19T04:34:15.399Z,9.10
2023-02-19T04:34:47.203Z,9.10
2023-02-19T04:35:20.011Z,9.10
2023-02-19T04:35:51.810Z,9.10
2023-02-19T04:36:23.618Z,9.10
2023-02-19T04:36:56.358Z,9.10
2023-02-19T04:37:28.177Z,9.10
2023-02-19T04:37:59.977Z,9.10
2023-02-19T04:38:32.756Z,9.10
2023-02-19T04:39:04.640Z,9.10
2023-02-19T04:39:36.502Z,9.10
2023-02-19T04:40:10.658Z,9.10
2023-02-19T04:40:42.525Z,9.00
2023-02-19T04:41:14.333Z,9.00
2023-02-19T04:41:46.191Z,9.00
2023-02-19T04:42:18.997Z,9.00
2023-02-19T04:42:50.806Z,9.00
2023-02-19T04:43:22.652Z,9.00
2023-02-19T04:43:55.440Z,9.00
2023-02-19T04:44:27.365Z,9.10
2023-02-19T04:44:59.190Z,9.10
2023-02-19T04:45:32.041Z,9.10
2023-02-19T04:46:05.552Z,9.10
2023-02-19T04:46:37.427Z,9.10
2023-02-19T04:47:10.199Z,9.10
2023-02-19T04:47:42.011Z,9.10
2023-02-19T04:48:14.757Z,9.10
2023-02-19T04:48:46.528Z,9.10
2023-02-19T04:49:19.337Z,9.10
2023-02-19T04:49:51.172Z,9.10
2023-02-19T04:50:23.181Z,9.10
2023-02-19T04:50:56.130Z,9.10
2023-02-19T04:51:27.955Z,9.10
2023-02-19T04:51:59.785Z,9.10
2023-02-19T04:52:33.228Z,9.10
2023-02-19T04:53:05.125Z,9.00
2023-02-19T04:53:37.275Z,9.10
2023-02-19T04:54:10.082Z,9.10
2023-02-19T04:54:41.911Z,9.10
2023-02-19T04:55:13.706Z,9.10
2023-02-19T04:55:47.966Z,9.10
2023-02-19T04:56:20.150Z,9.10
2023-02-19T04:56:52.053Z,9.10
2023-02-19T04:57:24.832Z,9.10
2023-02-19T04:57:56.676Z,9.10
2023-02-19T04:58:28.481Z,9.10
2023-02-19T04:59:01.268Z,9.10
2023-02-19T04:59:33.335Z,9.10
2023-02-19T05:00:06.535Z,9.10
2023-02-19T05:00:38.315Z,9.00
2023-02-19T05:01:13.330Z,9.10
2023-02-19T05:01:45.399Z,9.10
2023-02-19T05:02:17.269Z,9.00
2023-02-19T05:02:50.032Z,9.10
2023-02-19T05:03:21.817Z,9.10
2023-02-19T05:03:53.608Z,9.10
2023-02-19T05:04:26.683Z,9.10
2023-02-19T05:04:58.520Z,9.10
2023-02-19T05:05:30.319Z,9.10
2023-02-19T05:06:04.691Z,9.10
2023-02-19T05:06:36.599Z,9.10
2023-02-19T05:07:08.643Z,9.10
2023-02-19T05:07:41.442Z,9.10
2023-02-19T05:08:13.266Z,9.10
2023-02-19T05:08:45.086Z,9.10
2023-02-19T05:09:18.093Z,9.10
2023-02-19T05:09:49.863Z,9.10
2023-02-19T05:10:21.776Z,9.10
2023-02-19T05:10:58.821Z,9.10
2023-02-19T05:11:30.623Z,9.10
2023-02-19T05:12:02.653Z,9.10
2023-02-19T05:12:35.422Z,9.10
2023-02-19T05:13:07.229Z,9.10
2023-02-19T05:13:40.167Z,9.10
2023-02-19T05:14:12.978Z,9.10
2023-02-19T05:14:44.795Z,9.10
2023-02-19T05:15:16.749Z,9.10
2023-02-19T05:15:57.170Z,9.10
2023-02-19T05:16:30.374Z,9.10
2023-02-19T05:17:02.160Z,9.10
2023-02-19T05:17:35.262Z,9.10
2023-02-19T05:18:07.080Z,9.10
2023-02-19T05:18:39.101Z,9.10
2023-02-19T05:19:12.572Z,9.10
2023-02-19T05:19:44.414Z,9.10
2023-02-19T05:20:16.361Z,9.10
2023-02-19T05:20:49.178Z,9.10
2023-02-19T05:21:21.039Z,9.10
2023-02-19T05:21:53.819Z,9.30
2023-02-19T05:22:25.929Z,9.10
2023-02-19T05:22:57.704Z,9.10
2023-02-19T05:23:30.613Z,9.20
2023-02-19T05:24:02.611Z,9.10
2023-02-19T05:24:34.450Z,9.20
2023-02-19T05:25:07.400Z,9.20
2023-02-19T05:25:39.213Z,9.10
2023-02-19T05:26:15.236Z,9.10
2023-02-19T05:26:48.652Z,9.10
2023-02-19T05:27:20.555Z,9.10
2023-02-19T05:28:13.064Z,9.10
2023-02-19T05:28:46.055Z,9.10
2023-02-19T05:29:17.863Z,9.20
2023-02-19T05:29:49.712Z,9.20
2023-02-19T05:30:22.554Z,9.20
2023-02-19T05:30:55.631Z,9.20
2023-02-19T05:31:27.902Z,9.20
2023-02-19T05:32:02.179Z,9.20
2023-02-19T05:32:35.228Z,9.20
2023-02-19T05:33:07.070Z,9.10
2023-02-19T05:33:39.928Z,9.20
2023-02-19T05:34:11.733Z,9.20
2023-02-19T05:34:43.521Z,9.20
2023-02-19T05:35:16.412Z,9.20
2023-02-19T05:35:49.687Z,9.20
2023-02-19T05:36:22.352Z,9.20
2023-02-19T05:36:55.182Z,9.20
2023-02-19T05:37:27.077Z,9.20
2023-02-19T05:37:58.875Z,9.20
2023-02-19T05:38:30.656Z,9.30
2023-02-19T05:39:06.093Z,9.30
2023-02-19T05:39:37.952Z,9.30
2023-02-19T05:40:10.231Z,9.20
2023-02-19T05:40:43.843Z,9.20
2023-02-19T05:41:18.079Z,9.30
2023-02-19T05:41:50.057Z,9.20
2023-02-19T05:42:22.907Z,9.20
2023-02-19T05:42:54.816Z,9.30
2023-02-19T05:43:26.647Z,9.30
2023-02-19T05:43:59.774Z,9.30
2023-02-19T05:44:31.586Z,9.30
2023-02-19T05:45:03.578Z,9.30
2023-02-19T05:45:36.179Z,9.30
2023-02-19T05:46:10.218Z,9.30
2023-02-19T05:46:42.084Z,9.30
2023-02-19T05:47:16.206Z,9.30
2023-02-19T05:47:48.038Z,9.30
2023-02-19T05:48:19.852Z,9.30
2023-02-19T05:48:53.727Z,9.30
2023-02-19T05:49:25.526Z,9.30
2023-02-19T05:49:57.426Z,9.30
2023-02-19T05:50:30.935Z,9.30
2023-02-19T05:51:05.505Z,9.30
2023-02-19T05:51:37.532Z,9.30
2023-02-19T05:52:09.327Z,9.30
2023-02-19T05:52:42.089Z,9.30
2023-02-19T05:53:13.847Z,9.30
2023-02-19T05:53:47.075Z,9.30
2023-02-19T05:54:18.916Z,9.30
2023-02-19T05:54:50.755Z,9.30
2023-02-19T05:55:23.979Z,9.50
2023-02-19T05:55:55.818Z,9.40
2023-02-19T05:56:32.093Z,9.30
2023-02-19T05:57:04.955Z,9.30
2023-02-19T05:57:43.096Z,9.30
2023-02-19T05:58:15.291Z,9.40
2023-02-19T05:58:47.270Z,9.30
2023-02-19T05:59:22.073Z,9.30
2023-02-19T05:59:53.864Z,9.30
2023-02-19T06:00:27.022Z,9.30
2023-02-19T06:00:59.817Z,9.30
2023-02-19T06:01:32.157Z,9.30
2023-02-19T06:02:04.963Z,9.40
2023-02-19T06:02:38.281Z,9.40
2023-02-19T06:03:10.091Z,9.40
2023-02-19T06:03:42.853Z,9.40
2023-02-19T06:04:15.660Z,9.40
2023-02-19T06:04:47.568Z,9.40
2023-02-19T06:05:20.554Z,9.40
2023-02-19T06:05:52.431Z,9.40
2023-02-19T06:06:25.269Z,9.40
2023-02-19T06:06:58.094Z,9.30
2023-02-19T06:07:30.961Z,9.30
2023-02-19T06:08:02.795Z,9.30
2023-02-19T06:08:35.609Z,9.40
2023-02-19T06:09:08.155Z,9.40
2023-02-19T06:09:39.912Z,9.40
2023-02-19T06:10:13.624Z,9.40
2023-02-19T06:10:45.438Z,9.40
2023-02-19T06:11:17.474Z,9.40
2023-02-19T06:11:50.206Z,9.40
2023-02-19T06:12:21.987Z,9.40
2023-02-19T06:12:54.375Z,9.40
2023-02-19T06:13:27.132Z,9.40
2023-02-19T06:13:59.004Z,9.40
2023-02-19T06:14:30.824Z,9.40
2023-02-19T06:15:04.370Z,9.40
2023-02-19T06:15:36.680Z,9.40
2023-02-19T06:16:08.852Z,9.50
2023-02-19T06:16:42.435Z,9.50
2023-02-19T06:17:14.258Z,9.50
2023-02-19T06:17:47.766Z,9.50
2023-02-19T06:18:20.536Z,9.50
2023-02-19T06:18:52.663Z,9.50
2023-02-19T06:19:24.457Z,9.50
2023-02-19T06:19:57.255Z,9.50
2023-02-19T06:20:29.534Z,9.50
2023-02-19T06:21:01.895Z,9.50
2023-02-19T06:21:35.012Z,9.50
2023-02-19T06:22:07.017Z,9.50
2023-02-19T06:22:38.842Z,9.50
2023-02-19T06:23:11.621Z,9.50
2023-02-19T06:23:43.830Z,9.50
2023-02-19T06:24:16.570Z,9.50
2023-02-19T06:24:48.557Z,9.50
2023-02-19T06:25:20.568Z,9.50
2023-02-19T06:25:53.298Z,9.50
2023-02-19T06:26:25.863Z,9.50
2023-02-19T06:26:58.217Z,9.50
2023-02-19T06:27:31.068Z,9.50
2023-02-19T06:28:02.965Z,9.50
2023-02-19T06:28:35.006Z,9.60
2023-02-19T06:29:07.905Z,9.50
2023-02-19T06:29:39.824Z,9.50
2023-02-19T06:30:12.452Z,9.50
2023-02-19T06:30:45.281Z,9.50
2023-02-19T06:31:18.576Z,9.50
2023-02-19T06:31:50.558Z,9.50
2023-02-19T06:32:23.551Z,9.60
2023-02-19T06:32:56.851Z,9.60
2023-02-19T06:33:29.086Z,9.60
2023-02-19T06:34:05.052Z,9.50
2023-02-19T06:34:37.042Z,9.60
2023-02-19T06:35:08.846Z,9.50
2023-02-19T06:35:41.608Z,9.60
2023-02-19T06:36:14.925Z,9.60
2023-02-19T06:36:49.130Z,9.50
2023-02-19T06:37:21.960Z,9.50
2023-02-19T06:37:53.822Z,9.50
2023-02-19T06:38:26.225Z,9.50
2023-02-19T06:39:00.971Z,9.60
2023-02-19T06:39:32.749Z,9.50
2023-02-19T06:40:06.173Z,9.50
2023-02-19T06:40:38.033Z,9.60
2023-02-19T06:41:10.665Z,9.60
2023-02-19T06:41:43.991Z,9.50
2023-02-19T06:42:15.816Z,9.40
2023-02-19T06:42:47.627Z,9.70
2023-02-19T06:43:19.507Z,9.60
2023-02-19T06:43:52.299Z,9.60
2023-02-19T06:44:24.655Z,9.60
2023-02-19T06:44:56.434Z,9.90
2023-02-19T06:45:29.398Z,9.60
2023-02-19T06:46:02.791Z,9.60
2023-02-19T06:46:35.470Z,9.60
2023-02-19T06:47:08.252Z,9.60
2023-02-19T06:47:40.058Z,9.70
2023-02-19T06:48:13.289Z,9.60
2023-02-19T06:48:46.332Z,9.60
2023-02-19T06:49:18.243Z,9.60
2023-02-19T06:49:50.094Z,9.60
2023-02-19T06:50:22.879Z,9.60
2023-02-19T06:50:55.411Z,9.60
2023-02-19T06:51:29.544Z,9.60
2023-02-19T06:52:03.568Z,9.60
2023-02-19T06:52:35.357Z,9.60
2023-02-19T06:53:08.890Z,9.60
2023-02-19T06:53:41.667Z,9.60
2023-02-19T06:54:13.522Z,9.60
2023-02-19T06:54:45.326Z,9.70
2023-02-19T06:55:18.185Z,9.60
2023-02-19T06:55:56.467Z,9.60
2023-02-19T06:56:29.887Z,9.60
2023-02-19T06:57:03.203Z,9.60
2023-02-19T06:57:35.033Z,9.70
2023-02-19T06:58:07.708Z,9.60
2023-02-19T06:58:39.482Z,9.60
2023-02-19T06:59:14.219Z,9.60
2023-02-19T06:59:46.108Z,9.60
2023-02-19T07:00:18.520Z,9.60
2023-02-19T07:00:51.405Z,9.70
2023-02-19T07:01:23.726Z,9.70
2023-02-19T07:01:55.571Z,9.70
2023-02-19T07:02:28.430Z,9.70
2023-02-19T07:03:00.260Z,9.70
2023-02-19T07:03:33.397Z,9.70
2023-02-19T07:04:07.269Z,9.70
2023-02-19T07:04:42.290Z,9.60
2023-02-19T07:05:15.140Z,9.70
2023-02-19T07:05:47.065Z,9.70
2023-02-19T07:06:19.222Z,9.90
2023-02-19T07:06:51.967Z,9.70
2023-02-19T07:07:23.725Z,9.70
2023-02-19T07:07:55.600Z,9.70
2023-02-19T07:08:29.668Z,9.70
2023-02-19T07:09:02.409Z,9.70
2023-02-19T07:09:34.217Z,9.80
2023-02-19T07:10:07.685Z,9.70
2023-02-19T07:10:39.550Z,9.80
2023-02-19T07:11:12.508Z,9.80
2023-02-19T07:11:44.447Z,9.80
2023-02-19T07:12:16.299Z,9.80
2023-02-19T07:12:49.065Z,9.80
2023-02-19T07:13:20.893Z,9.80
2023-02-19T07:13:56.568Z,9.80
2023-02-19T07:14:29.631Z,9.90
2023-02-19T07:15:01.509Z,9.80
2023-02-19T07:15:34.334Z,9.80
2023-02-19T07:16:08.398Z,9.90
2023-02-19T07:16:40.255Z,9.90
2023-02-19T07:17:13.079Z,9.90
2023-02-19T07:17:44.966Z,9.90
2023-02-19T07:18:16.923Z,9.90
2023-02-19T07:18:51.329Z,9.90
2023-02-19T07:19:23.121Z,9.90
2023-02-19T07:19:56.101Z,9.90
2023-02-19T07:20:28.929Z,9.90
2023-02-19T07:21:03.345Z,9.90
2023-02-19T07:21:37.661Z,9.90
2023-02-19T07:22:10.713Z,9.90
2023-02-19T07:22:42.568Z,9.90
2023-02-19T07:23:14.360Z,9.80
2023-02-19T07:23:47.438Z,9.90
2023-02-19T07:24:21.453Z,9.80
2023-02-19T07:24:54.239Z,9.80
2023-02-19T07:25:26.054Z,9.90
2023-02-19T07:25:58.318Z,9.80
2023-02-19T07:26:31.163Z,9.90
2023-02-19T07:27:03.012Z,9.90
2023-02-19T07:27:34.817Z,9.90
2023-02-19T07:28:08.020Z,9.80
2023-02-19T07:28:41.043Z,9.90
2023-02-19T07:29:12.804Z,9.80
2023-02-19T07:29:44.663Z,9.80
2023-02-19T07:30:17.503Z,9.80
2023-02-19T07:30:49.359Z,9.80
2023-02-19T07:31:24.285Z,9.80
2023-02-19T07:31:57.324Z,9.80
2023-02-19T07:32:29.223Z,9.80
2023-02-19T07:33:01.013Z,9.80
2023-02-19T07:33:32.901Z,9.80
2023-02-19T07:34:08.355Z,9.80
2023-02-19T07:34:40.181Z,9.80
2023-02-19T07:35:12.234Z,9.80
2023-02-19T07:35:46.188Z,9.80
2023-02-19T07:36:20.570Z,9.70